createdAt,value
2022-09-03T00:00:39.531Z,21.33
2022-09-03T00:03:21.272Z,21.28
2022-09-03T00:05:59.097Z,21.24
2022-09-03T00:08:35.662Z,21.18
2022-09-03T00:11:15.025Z,21.17
2022-09-03T00:13:50.222Z,21.14
2022-09-03T00:16:24.363Z,21.12
2022-09-03T00:19:00.957Z,21.10
2022-09-03T00:21:41.005Z,21.11
2022-09-03T00:24:15.472Z,21.09
2022-09-03T00:26:48.579Z,21.06
2022-09-03T00:29:20.549Z,21.06
2022-09-03T00:31:54.277Z,21.05
2022-09-03T00:34:33.566Z,21.01
2022-09-03T00:37:03.814Z,21.03
2022-09-03T00:39:33.842Z,21.01
2022-09-03T00:42:21.084Z,20.96
2022-09-03T00:45:11.903Z,20.95
2022-09-03T00:47:55.232Z,20.93
2022-09-03T00:50:37.268Z,20.89
2022-09-03T00:53:14.619Z,20.89
2022-09-03T00:55:55.684Z,20.90
2022-09-03T00:58:43.407Z,20.87
2022-09-03T01:01:19.614Z,20.85
2022-09-03T01:04:04.195Z,20.82
2022-09-03T01:06:44.425Z,20.81
2022-09-03T01:09:33.682Z,20.78
2022-09-03T01:12:14.886Z,20.75
2022-09-03T01:14:58.837Z,20.74
2022-09-03T01:17:39.743Z,20.72
2022-09-03T01:20:39.639Z,20.72
2022-09-03T01:23:30.654Z,20.70
2022-09-03T01:26:18.160Z,20.68
2022-09-03T01:29:00.921Z,20.67
2022-09-03T01:31:40.290Z,20.63
2022-09-03T01:34:22.294Z,20.59
2022-09-03T01:37:02.407Z,20.56
2022-09-03T01:39:45.304Z,20.52
2022-09-03T01:42:25.845Z,20.51
2022-09-03T01:45:21.536Z,20.51
2022-09-03T01:48:08.046Z,20.48
2022-09-03T01:50:46.609Z,20.45
2022-09-03T01:53:30.284Z,20.38
2022-09-03T01:56:15.567Z,20.38
2022-09-03T01:58:49.630Z,20.35
2022-09-03T02:01:29.396Z,20.32
2022-09-03T02:04:00.228Z,20.30
2022-09-03T02:06:32.057Z,20.29
2022-09-03T02:09:01.923Z,20.29
2022-09-03T02:11:31.928Z,20.29
2022-09-03T02:14:04.935Z,20.27
2022-09-03T02:16:39.053Z,20.25
2022-09-03T02:19:13.673Z,20.22
2022-09-03T02:21:49.684Z,20.22
2022-09-03T02:24:19.836Z,20.18
2022-09-03T02:26:50.047Z,20.16
2022-09-03T02:29:20.780Z,20.15
2022-09-03T02:31:53.570Z,20.14
2022-09-03T02:34:23.653Z,20.14
2022-09-03T02:36:54.603Z,20.13
2022-09-03T02:39:24.516Z,20.11
2022-09-03T02:42:00.135Z,20.08
2022-09-03T02:44:34.296Z,20.07
2022-09-03T02:47:09.158Z,20.04
2022-09-03T02:49:39.468Z,20.03
2022-09-03T02:52:12.304Z,19.99
2022-09-03T02:54:42.643Z,20.01
2022-09-03T02:57:14.622Z,19.97
2022-09-03T02:59:46.054Z,19.93
2022-09-03T03:02:18.584Z,19.87
2022-09-03T03:04:48.522Z,19.84
2022-09-03T03:07:18.404Z,19.82
2022-09-03T03:09:48.214Z,19.81
2022-09-03T03:12:19.299Z,19.78
2022-09-03T03:14:49.211Z,19.76
2022-09-03T03:17:21.607Z,19.73
2022-09-03T03:19:52.056Z,19.73
2022-09-03T03:22:21.891Z,19.70
2022-09-03T03:24:52.899Z,19.67
2022-09-03T03:27:22.715Z,19.63
2022-09-03T03:29:52.609Z,19.59
2022-09-03T03:32:25.013Z,19.54
2022-09-03T03:34:54.863Z,19.52
2022-09-03T03:37:24.707Z,19.52
2022-09-03T03:39:54.615Z,19.52
2022-09-03T03:42:24.573Z,19.55
2022-09-03T03:44:54.437Z,19.54
2022-09-03T03:47:26.893Z,19.52
2022-09-03T03:49:56.788Z,19.53
2022-09-03T03:52:26.930Z,19.52
2022-09-03T03:54:57.172Z,19.53
2022-09-03T03:57:27.338Z,19.54
2022-09-03T03:59:57.178Z,19.52
2022-09-03T04:02:29.628Z,19.51
2022-09-03T04:04:59.710Z,19.54
2022-09-03T04:07:29.710Z,19.54
2022-09-03T04:10:00.783Z,19.52
2022-09-03T04:12:30.896Z,19.48
2022-09-03T04:15:00.699Z,19.47
2022-09-03T04:17:33.394Z,19.45
2022-09-03T04:20:03.246Z,19.45
2022-09-03T04:22:33.967Z,19.44
2022-09-03T04:25:03.874Z,19.44
2022-09-03T04:27:34.044Z,19.41
2022-09-03T04:30:03.927Z,19.36
2022-09-03T04:32:49.372Z,19.35
2022-09-03T04:35:23.155Z,19.39
2022-09-03T04:37:55.277Z,19.40
2022-09-03T04:40:25.100Z,19.39
2022-09-03T04:43:00.413Z,19.38
2022-09-03T04:45:30.748Z,19.36
2022-09-03T04:48:05.786Z,19.32
2022-09-03T04:50:35.875Z,19.34
2022-09-03T04:53:08.678Z,19.33
2022-09-03T04:55:39.983Z,19.33
2022-09-03T04:58:10.570Z,19.36
2022-09-03T05:00:40.825Z,19.43
2022-09-03T05:03:13.364Z,19.47
2022-09-03T05:05:43.334Z,19.53
2022-09-03T05:08:13.239Z,19.60
2022-09-03T05:10:43.107Z,19.69
2022-09-03T05:13:12.934Z,19.75
2022-09-03T05:15:45.523Z,19.79
2022-09-03T05:18:18.029Z,19.81
2022-09-03T05:20:48.297Z,19.89
2022-09-03T05:23:19.883Z,19.93
2022-09-03T05:25:59.009Z,19.90
2022-09-03T05:28:30.493Z,19.96
2022-09-03T05:31:03.976Z,19.99
2022-09-03T05:33:38.050Z,19.98
2022-09-03T05:36:10.089Z,19.94
2022-09-03T05:38:40.141Z,19.99
2022-09-03T05:41:13.061Z,20.07
2022-09-03T05:43:43.408Z,20.06
2022-09-03T05:46:16.988Z,20.01
2022-09-03T05:48:49.456Z,19.94
2022-09-03T05:51:20.723Z,19.88
2022-09-03T05:53:53.531Z,19.85
2022-09-03T05:56:25.714Z,19.81
2022-09-03T05:58:57.323Z,19.77
2022-09-03T06:01:29.044Z,19.79
2022-09-03T06:04:03.725Z,19.77
2022-09-03T06:06:35.462Z,19.74
2022-09-03T06:09:08.689Z,19.68
2022-09-03T06:11:40.090Z,19.66
2022-09-03T06:14:12.415Z,19.64
2022-09-03T06:16:44.153Z,19.64
2022-09-03T06:19:16.591Z,19.63
2022-09-03T06:21:48.291Z,19.64
2022-09-03T06:24:20.334Z,19.67
2022-09-03T06:26:51.733Z,19.79
2022-09-03T06:29:22.055Z,19.84
2022-09-03T06:31:52.172Z,19.91
2022-09-03T06:34:25.703Z,19.98
2022-09-03T06:36:55.762Z,20.07
2022-09-03T06:39:27.142Z,20.20
2022-09-03T06:41:57.092Z,20.31
2022-09-03T06:44:37.854Z,20.58
2022-09-03T06:47:09.550Z,20.76
2022-09-03T06:49:41.934Z,20.97
2022-09-03T06:52:11.803Z,21.16
2022-09-03T06:54:42.365Z,21.32
2022-09-03T06:57:12.388Z,21.43
2022-09-03T06:59:43.863Z,21.51
2022-09-03T07:02:14.460Z,21.34
2022-09-03T07:04:46.953Z,21.24
2022-09-03T07:07:18.673Z,21.27
2022-09-03T07:09:48.593Z,21.37
2022-09-03T07:12:19.382Z,21.51
2022-09-03T07:14:51.103Z,21.66
2022-09-03T07:17:21.213Z,21.71
2022-09-03T07:19:53.668Z,21.65
2022-09-03T07:22:23.687Z,21.68
2022-09-03T07:25:02.536Z,21.69
2022-09-03T07:27:32.438Z,21.67
2022-09-03T07:30:03.532Z,21.60
2022-09-03T07:32:33.605Z,21.51
2022-09-03T07:35:06.244Z,21.47
2022-09-03T07:37:36.641Z,21.42
2022-09-03T07:40:06.923Z,21.34
2022-09-03T07:42:38.628Z,21.42
2022-09-03T07:45:10.807Z,21.44
2022-09-03T07:47:42.480Z,21.50
2022-09-03T07:50:16.276Z,21.52
2022-09-03T07:52:46.163Z,21.58
2022-09-03T07:55:16.574Z,21.62
2022-09-03T07:57:46.655Z,21.66
2022-09-03T08:00:18.346Z,21.66
2022-09-03T08:02:48.214Z,21.67
2022-09-03T08:05:21.450Z,21.67
2022-09-03T08:07:51.492Z,21.71
2022-09-03T08:10:22.782Z,21.75
2022-09-03T08:12:52.672Z,21.83
2022-09-03T08:15:22.615Z,21.89
2022-09-03T08:17:52.492Z,21.98
2022-09-03T08:20:24.922Z,22.06
2022-09-03T08:22:54.788Z,22.23
2022-09-03T08:25:24.864Z,22.47
2022-09-03T08:27:54.822Z,22.66
2022-09-03T08:30:25.395Z,22.87
2022-09-03T08:32:55.273Z,23.02
2022-09-03T08:35:28.004Z,23.12
2022-09-03T08:37:57.851Z,23.21
2022-09-03T08:40:27.739Z,23.37
2022-09-03T08:43:06.993Z,23.56
2022-09-03T08:45:39.453Z,23.66
2022-09-03T08:48:13.904Z,23.75
2022-09-03T08:50:50.120Z,23.89
2022-09-03T08:53:25.163Z,24.06
2022-09-03T08:55:58.809Z,24.15
2022-09-03T08:58:30.674Z,24.19
2022-09-03T09:01:06.828Z,24.27
2022-09-03T09:03:45.261Z,24.42
2022-09-03T09:06:24.314Z,24.61
2022-09-03T09:09:17.076Z,24.75
2022-09-03T09:11:58.913Z,24.82
2022-09-03T09:14:36.180Z,24.88
2022-09-03T09:17:21.014Z,24.98
2022-09-03T09:20:03.484Z,25.11
2022-09-03T09:22:40.457Z,25.24
2022-09-03T09:25:17.000Z,25.44
2022-09-03T09:28:04.248Z,25.52
2022-09-03T09:30:35.988Z,25.66
2022-09-03T09:33:07.247Z,25.91
2022-09-03T09:35:37.113Z,26.03
2022-09-03T09:38:09.660Z,26.03
2022-09-03T09:40:45.309Z,26.08
2022-09-03T09:43:17.098Z,26.12
2022-09-03T09:45:48.840Z,26.21
2022-09-03T09:48:27.212Z,26.27
2022-09-03T09:51:08.144Z,26.37
2022-09-03T09:53:40.923Z,26.50
2022-09-03T09:56:11.325Z,26.71
2022-09-03T09:58:41.594Z,26.89
2022-09-03T10:01:15.933Z,26.97
2022-09-03T10:03:55.453Z,27.08
2022-09-03T10:06:40.017Z,27.12
2022-09-03T10:09:15.961Z,27.26
2022-09-03T10:11:50.946Z,27.46
2022-09-03T10:14:27.165Z,27.70
2022-09-03T10:17:06.726Z,27.94
2022-09-03T10:20:07.046Z,28.20
2022-09-03T10:22:56.420Z,28.38
2022-09-03T10:25:39.231Z,28.40
2022-09-03T10:28:13.997Z,28.39
2022-09-03T10:31:07.548Z,28.35
2022-09-03T10:33:44.380Z,28.12
2022-09-03T10:36:21.583Z,27.75
2022-09-03T10:38:56.948Z,27.46
2022-09-03T10:41:44.067Z,27.38
2022-09-03T10:44:28.889Z,27.70
2022-09-03T10:47:14.619Z,27.71
2022-09-03T10:49:59.972Z,27.33
2022-09-03T10:52:34.649Z,26.90
2022-09-03T10:55:17.996Z,26.47
2022-09-03T10:57:54.534Z,26.34
2022-09-03T11:00:24.441Z,26.37
2022-09-03T11:03:10.508Z,26.16
2022-09-03T11:05:43.910Z,26.76
2022-09-03T11:08:18.020Z,28.02
2022-09-03T11:10:53.388Z,28.58
2022-09-03T11:13:35.875Z,28.22
2022-09-03T11:16:12.557Z,27.93
2022-09-03T11:18:47.656Z,27.73
2022-09-03T11:21:23.469Z,27.54
2022-09-03T11:24:00.898Z,27.05
2022-09-03T11:26:35.084Z,26.60
2022-09-03T11:29:15.165Z,26.31
2022-09-03T11:32:00.594Z,27.12
2022-09-03T11:34:34.057Z,28.40
2022-09-03T11:37:21.180Z,28.89
2022-09-03T11:40:02.622Z,28.46
2022-09-03T11:42:39.722Z,27.65
2022-09-03T11:45:26.033Z,26.86
2022-09-03T11:47:56.488Z,26.41
2022-09-03T11:50:28.802Z,26.04
2022-09-03T11:53:11.709Z,25.76
2022-09-03T11:55:56.296Z,25.56
2022-09-03T11:58:32.942Z,25.55
2022-09-03T12:01:15.072Z,25.63
2022-09-03T12:03:52.879Z,25.87
2022-09-03T12:06:41.644Z,25.88
2022-09-03T12:09:24.613Z,25.78
2022-09-03T12:12:05.720Z,25.63
2022-09-03T12:14:44.116Z,25.53
2022-09-03T12:17:31.587Z,25.41
2022-09-03T12:20:04.118Z,25.31
2022-09-03T12:22:40.323Z,25.35
2022-09-03T12:25:13.227Z,25.41
2022-09-03T12:27:45.913Z,25.47
2022-09-03T12:30:19.887Z,25.58
2022-09-03T12:32:52.664Z,25.69
2022-09-03T12:38:18.667Z,25.81
2022-09-03T12:43:39.555Z,25.64
2022-09-03T12:46:18.089Z,25.51
2022-09-03T12:51:51.097Z,25.52
2022-09-03T12:54:21.604Z,25.66
2022-09-03T12:56:57.502Z,25.74
2022-09-03T12:59:31.466Z,25.82
2022-09-03T13:02:07.344Z,25.77
2022-09-03T13:04:42.274Z,25.67
2022-09-03T13:07:24.282Z,25.57
2022-09-03T13:09:54.404Z,25.50
2022-09-03T13:12:26.009Z,25.42
2022-09-03T13:14:56.247Z,25.35
2022-09-03T13:17:40.181Z,25.27
2022-09-03T13:20:35.158Z,25.34
2022-09-03T13:23:33.350Z,25.31
2022-09-03T13:26:14.718Z,25.17
2022-09-03T13:28:58.783Z,25.07
2022-09-03T13:31:34.222Z,24.99
2022-09-03T13:34:09.884Z,24.97
2022-09-03T13:36:48.061Z,24.95
2022-09-03T13:39:27.199Z,24.90
2022-09-03T13:42:01.336Z,24.90
2022-09-03T13:44:40.973Z,24.91
2022-09-03T13:47:15.609Z,24.93
2022-09-03T13:50:03.059Z,25.06
2022-09-03T13:52:45.961Z,25.06
2022-09-03T13:55:23.980Z,25.05
2022-09-03T13:58:01.945Z,25.06
2022-09-03T14:00:36.106Z,25.04
2022-09-03T14:03:17.353Z,25.00
2022-09-03T14:06:05.412Z,24.95
2022-09-03T14:08:58.675Z,24.97
2022-09-03T14:11:35.802Z,24.92
2022-09-03T14:14:16.619Z,24.78
2022-09-03T14:16:56.132Z,24.74
2022-09-03T14:19:40.730Z,24.74
2022-09-03T14:22:17.769Z,24.83
2022-09-03T14:24:54.965Z,24.84
2022-09-03T14:27:30.169Z,24.87
2022-09-03T14:30:03.983Z,24.90
2022-09-03T14:32:42.591Z,24.92
2022-09-03T14:35:26.795Z,24.91
2022-09-03T14:38:25.893Z,24.88
2022-09-03T14:41:09.113Z,24.85
2022-09-03T14:44:06.645Z,24.82
2022-09-03T14:46:50.571Z,24.85
2022-09-03T14:49:47.211Z,24.87
2022-09-03T14:52:44.544Z,24.91
2022-09-03T14:55:28.792Z,24.97
2022-09-03T14:58:28.365Z,24.97
2022-09-03T15:01:04.176Z,25.04
2022-09-03T15:03:50.101Z,25.04
2022-09-03T15:06:31.490Z,25.04
2022-09-03T15:09:25.122Z,25.01
2022-09-03T15:12:00.922Z,24.98
2022-09-03T15:14:42.537Z,24.93
2022-09-03T15:17:42.663Z,24.90
2022-09-03T15:20:35.809Z,24.90
2022-09-03T15:23:26.915Z,24.91
2022-09-03T15:26:25.936Z,24.89
2022-09-03T15:29:11.767Z,24.86
2022-09-03T15:31:58.042Z,24.85
2022-09-03T15:34:42.855Z,24.83
2022-09-03T15:37:20.177Z,24.79
2022-09-03T15:40:03.289Z,24.76
2022-09-03T15:42:33.650Z,24.81
2022-09-03T15:45:18.176Z,24.80
2022-09-03T15:47:57.831Z,24.79
2022-09-03T15:50:36.367Z,24.77
2022-09-03T15:53:17.874Z,24.74
2022-09-03T15:55:49.882Z,24.72
2022-09-03T15:58:31.700Z,24.69
2022-09-03T16:01:06.271Z,24.66
2022-09-03T16:03:47.938Z,24.62
2022-09-03T16:06:28.055Z,24.61
2022-09-03T16:09:01.079Z,24.62
2022-09-03T16:11:40.035Z,24.62
2022-09-03T16:14:17.220Z,24.67
2022-09-03T16:16:59.936Z,24.68
2022-09-03T16:19:40.668Z,24.72
2022-09-03T16:22:17.506Z,24.75
2022-09-03T16:24:53.883Z,24.69
2022-09-03T16:27:27.371Z,24.68
2022-09-03T16:30:03.808Z,24.66
2022-09-03T16:32:51.007Z,24.63
2022-09-03T16:35:35.660Z,24.63
2022-09-03T16:38:17.269Z,24.61
2022-09-03T16:40:54.558Z,24.56
2022-09-03T16:43:41.557Z,24.55
2022-09-03T16:46:27.214Z,24.51
2022-09-03T16:49:09.264Z,24.53
2022-09-03T16:51:50.430Z,24.55
2022-09-03T16:54:33.007Z,24.58
2022-09-03T16:57:14.590Z,24.56
2022-09-03T17:00:01.786Z,24.55
2022-09-03T17:02:51.333Z,24.56
2022-09-03T17:05:51.726Z,24.54
2022-09-03T17:08:34.218Z,24.53
2022-09-03T17:11:18.998Z,24.50
2022-09-03T17:14:12.108Z,24.50
2022-09-03T17:16:55.199Z,24.49
2022-09-03T17:19:32.164Z,24.48
2022-09-03T17:22:13.461Z,24.44
2022-09-03T17:24:53.059Z,24.44
2022-09-03T17:27:54.590Z,24.43
2022-09-03T17:30:31.349Z,24.41
2022-09-03T17:33:35.985Z,24.36
2022-09-03T17:36:13.333Z,24.35
2022-09-03T17:39:06.850Z,24.34
2022-09-03T17:41:47.125Z,24.34
2022-09-03T17:44:25.766Z,24.33
2022-09-03T17:47:08.718Z,24.31
2022-09-03T17:49:47.969Z,24.30
2022-09-03T17:52:28.042Z,24.27
2022-09-03T17:55:02.273Z,24.24
2022-09-03T17:57:43.104Z,24.22
2022-09-03T18:00:25.588Z,24.22
2022-09-03T18:03:04.174Z,24.21
2022-09-03T18:05:46.215Z,24.20
2022-09-03T18:08:22.312Z,24.19
2022-09-03T18:11:03.563Z,24.17
2022-09-03T18:13:48.522Z,24.15
2022-09-03T18:16:24.653Z,24.15
2022-09-03T18:18:56.272Z,24.12
2022-09-03T18:21:41.760Z,24.10
2022-09-03T18:24:40.268Z,24.05
2022-09-03T18:27:26.874Z,24.04
2022-09-03T18:30:17.663Z,24.00
2022-09-03T18:33:00.040Z,24.00
2022-09-03T18:35:45.979Z,23.97
2022-09-03T18:38:28.423Z,23.97
2022-09-03T18:41:21.482Z,23.92
2022-09-03T18:44:12.188Z,23.90
2022-09-03T18:48:02.300Z,23.90
2022-09-03T18:50:13.865Z,23.90
2022-09-03T18:53:05.374Z,23.88
2022-09-03T18:55:59.132Z,23.87
2022-09-03T18:58:49.911Z,23.88
2022-09-03T19:01:43.543Z,23.88
2022-09-03T19:04:37.671Z,23.85
2022-09-03T19:07:26.459Z,23.85
2022-09-03T19:10:17.016Z,23.85
2022-09-03T19:13:23.572Z,23.83
2022-09-03T19:16:13.118Z,23.83
2022-09-03T19:19:17.527Z,23.82
2022-09-03T19:22:07.922Z,23.80
2022-09-03T19:24:50.304Z,23.80
2022-09-03T19:28:00.067Z,23.78
2022-09-03T19:30:58.283Z,23.80
2022-09-03T19:33:49.406Z,23.79
2022-09-03T19:36:40.302Z,23.78
2022-09-03T19:39:40.497Z,23.76
2022-09-03T19:42:32.550Z,23.76
2022-09-03T19:45:25.448Z,23.70
2022-09-03T19:48:27.864Z,23.69
2022-09-03T19:51:20.585Z,23.67
2022-09-03T19:54:04.103Z,23.66
2022-09-03T19:56:50.641Z,23.64
2022-09-03T19:59:35.798Z,23.62
2022-09-03T20:02:20.524Z,23.59
2022-09-03T20:05:08.636Z,23.56
2022-09-03T20:07:55.179Z,23.53
2022-09-03T20:10:24.435Z,23.53
2022-09-03T20:13:06.641Z,23.50
2022-09-03T20:15:50.311Z,23.51
2022-09-03T20:18:33.222Z,23.52
2022-09-03T20:21:13.371Z,23.54
2022-09-03T20:23:55.382Z,23.53
2022-09-03T20:26:38.366Z,23.54
2022-09-03T20:29:29.222Z,23.53
2022-09-03T20:32:07.208Z,23.53
2022-09-03T20:34:48.000Z,23.51
2022-09-03T20:37:28.900Z,23.51
2022-09-03T20:40:11.783Z,23.50
2022-09-03T20:43:05.732Z,23.49
2022-09-03T20:45:56.285Z,23.49
2022-09-03T20:48:32.785Z,23.47
2022-09-03T20:51:10.249Z,23.43
2022-09-03T20:54:17.048Z,23.38
2022-09-03T20:57:10.587Z,23.37
2022-09-03T20:59:55.441Z,23.34
2022-09-03T21:02:48.454Z,23.32
2022-09-03T21:05:27.780Z,23.33
2022-09-03T21:08:11.317Z,23.30
2022-09-03T21:10:50.814Z,23.27
2022-09-03T21:13:28.930Z,23.23
2022-09-03T21:16:06.406Z,23.21
2022-09-03T21:18:50.403Z,23.17
2022-09-03T21:21:36.274Z,23.15
2022-09-03T21:24:12.339Z,23.12
2022-09-03T21:26:46.244Z,23.12
2022-09-03T21:29:22.511Z,23.11
2022-09-03T21:31:57.520Z,23.10
2022-09-03T21:34:34.122Z,23.07
2022-09-03T21:37:06.943Z,23.08
2022-09-03T21:39:44.884Z,23.06
2022-09-03T21:42:21.294Z,23.04
2022-09-03T21:44:56.391Z,23.01
2022-09-03T21:47:29.930Z,22.98
2022-09-03T21:50:16.380Z,22.99
2022-09-03T21:52:54.062Z,22.99
2022-09-03T21:55:30.554Z,22.96
2022-09-03T21:58:12.273Z,22.94
2022-09-03T22:00:42.170Z,22.93
2022-09-03T22:03:13.482Z,22.91
2022-09-03T22:05:55.169Z,22.85
2022-09-03T22:08:34.416Z,22.84
2022-09-03T22:11:12.352Z,22.83
2022-09-03T22:13:52.587Z,22.81
2022-09-03T22:16:30.251Z,22.83
2022-09-03T22:19:00.673Z,22.85
2022-09-03T22:21:38.961Z,22.82
2022-09-03T22:24:24.815Z,22.80
2022-09-03T22:27:00.827Z,22.78
2022-09-03T22:29:39.723Z,22.78
2022-09-03T22:32:25.427Z,22.76
2022-09-03T22:35:13.387Z,22.76
2022-09-03T22:37:59.522Z,22.72
2022-09-03T22:40:34.931Z,22.69
2022-09-03T22:43:36.686Z,22.67
2022-09-03T22:46:14.586Z,22.64
2022-09-03T22:49:14.766Z,22.63
2022-09-03T22:51:57.199Z,22.60
2022-09-03T22:54:41.739Z,22.57
2022-09-03T22:57:13.408Z,22.55
2022-09-03T22:59:47.285Z,22.51
2022-09-03T23:02:22.579Z,22.49
2022-09-03T23:05:02.248Z,22.49
2022-09-03T23:07:37.807Z,22.46
2022-09-03T23:10:24.339Z,22.43
2022-09-03T23:13:06.106Z,22.44
2022-09-03T23:15:39.826Z,22.42
2022-09-03T23:18:17.579Z,22.40
2022-09-03T23:20:54.239Z,22.39
2022-09-03T23:23:30.844Z,22.34
2022-09-03T23:26:13.407Z,22.32
2022-09-03T23:28:47.504Z,22.30
2022-09-03T23:31:23.058Z,22.28
2022-09-03T23:33:55.913Z,22.23
2022-09-03T23:37:01.332Z,22.17
2022-09-03T23:39:37.764Z,22.17
2022-09-03T23:42:23.112Z,22.15
2022-09-03T23:45:10.229Z,22.13
2022-09-03T23:47:52.266Z,22.13
2022-09-03T23:50:34.466Z,22.07
2022-09-03T23:53:26.397Z,22.05
2022-09-03T23:56:15.953Z,22.03
2022-09-03T23:59:03.767Z,21.99
